This is the latest recevied weather packets stored in our database for station/object KN6ETB-1. If no packets are shown the sender has not sent any weather packets the latest 10 day(s).
| Time | Temp. | Humidity | Pressure | Rain* | Wind** | Luminosity | Snow |
|---|---|---|---|---|---|---|---|
| 1777417327 | 22.78° C | 45% | 1015.6 hPa | 0 mm | - | 563 W/m² | - |
| 1777417024 | 22.78° C | 46% | 1015.6 hPa | 0 mm | - | 551 W/m² | - |
| 1777416719 | 23.33° C | 45% | 1015.5 hPa | 0 mm | - | 379 W/m² | - |
| 1777416415 | 22.22° C | 47% | 1015.4 hPa | 0 mm | - | 557 W/m² | - |
| 1777416110 | 22.78° C | 47% | 1015.6 hPa | 0 mm | - | 131 W/m² | - |
| 1777415804 | 22.78° C | 46% | 1015.7 hPa | 0 mm | - | 125 W/m² | - |
| 1777415501 | 23.33° C | 47% | 1015.5 hPa | 0 mm | - | 229 W/m² | - |
| 1777415197 | 23.89° C | 46% | 1015.7 hPa | 0 mm | - | 575 W/m² | - |
| 1777414892 | 24.44° C | 46% | 1015.9 hPa | 0 mm | - | 571 W/m² | - |
| 1777414591 | 23.89° C | 45% | 1015.8 hPa | 0 mm | - | 601 W/m² | - |
| 1777414286 | 23.89° C | 44% | 1016 hPa | 0 mm | - | 410 W/m² | - |
| 1777413981 | 23.89° C | 45% | 1015.8 hPa | 0 mm | - | 626 W/m² | - |
| 1777413677 | 23.89° C | 45% | 1015.9 hPa | 0 mm | - | 610 W/m² | - |
| 1777413373 | 23.89° C | 46% | 1016 hPa | 0 mm | - | 623 W/m² | - |
| 1777413069 | 22.78° C | 47% | 1015.9 hPa | 0 mm | - | 626 W/m² | - |
| 1777412764 | 23.33° C | 45% | 1016.5 hPa | 0 mm | - | 595 W/m² | - |
| 1777412463 | 23.33° C | 45% | 1016.5 hPa | 0 mm | - | 574 W/m² | - |
| 1777412160 | 23.33° C | 46% | 1016.4 hPa | 0 mm | - | 597 W/m² | - |
| 1777411857 | 22.22° C | 47% | 1016.4 hPa | 0 mm | - | 588 W/m² | - |
| 1777411555 | 22.78° C | 46% | 1016.6 hPa | 0 mm | - | 373 W/m² | - |
| 1777411250 | 22.78° C | 46% | 1016.6 hPa | 0 mm | - | 597 W/m² | - |
| 1777410945 | 22.78° C | 47% | 1016.6 hPa | 0 mm | - | 288 W/m² | - |
| 1777410644 | 22.22° C | 48% | 1016.3 hPa | 0 mm | - | 557 W/m² | - |
| 1777410340 | 22.22° C | 47% | 1016.4 hPa | 0 mm | - | 540 W/m² | - |
| 1777410034 | 22.78° C | 47% | 1016.8 hPa | 0 mm | - | 626 W/m² | - |
* Rain latest hour (hover to see other rain measurements)
** Current wind speed in m/s (hover to see current wind gust speed)